Time;durP1;ratioP1;P1;durP2;ratioP2;P2;SDS_P1;SDS_P2;PMS_P1;PMS_P2;Temp;Humidity;BMP_temperature;BMP_pressure;BME280_temperature;BME280_humidity;BME280_pressure;Samples;Min_cycle;Max_cycle;Signal;HPM_P1;HPM_P2
2023/04/15 00:01:28;;;;;;;175.45;62.90;;;7.10;99.90;;;5.64;100.00;100429.78;4933721;28;20524;-82
2023/04/15 00:03:55;;;;;;;163.32;60.60;;;7.00;99.90;;;5.57;100.00;100428.22;4913854;28;20134;-80
2023/04/15 00:06:21;;;;;;;151.98;57.38;;;7.00;99.90;;;5.53;100.00;100433.56;4933609;28;20039;-81
2023/04/15 00:08:49;;;;;;;148.38;56.33;;;7.00;99.90;;;5.43;100.00;100419.06;4925961;28;20035;-80
2023/04/15 00:11:18;;;;;;;159.88;58.28;;;6.90;99.90;;;5.42;100.00;100433.03;4935066;28;20084;-80
2023/04/15 00:13:44;;;;;;;172.55;57.92;;;6.90;99.90;;;5.42;100.00;100425.22;4939040;28;20044;-80
2023/04/15 00:16:11;;;;;;;161.75;56.55;;;6.90;99.90;;;5.40;100.00;100420.91;4934061;28;20023;-81
2023/04/15 00:18:37;;;;;;;153.73;55.13;;;6.80;99.90;;;5.35;100.00;100416.66;4930373;28;20113;-82
2023/04/15 00:21:04;;;;;;;157.05;55.30;;;6.80;99.90;;;5.32;100.00;100421.16;4945533;28;20046;-81
2023/04/15 00:23:38;;;;;;;159.80;57.60;;;6.70;99.90;;;5.27;100.00;100423.91;4922321;28;20541;-82
2023/04/15 00:26:04;;;;;;;190.70;59.40;;;6.80;99.90;;;5.29;100.00;100416.00;4958712;28;22540;-82
2023/04/15 00:28:30;;;;;;;165.55;57.65;;;6.70;99.90;;;5.29;100.00;100427.31;4956879;28;20845;-82
2023/04/15 00:30:56;;;;;;;160.18;54.92;;;6.70;99.90;;;5.25;100.00;100424.84;4944048;28;20120;-82
2023/04/15 00:33:31;;;;;;;203.57;59.65;;;6.70;99.90;;;5.22;100.00;100425.78;4950865;28;20586;-81
2023/04/15 00:35:57;;;;;;;167.38;57.97;;;6.70;99.90;;;5.19;100.00;100423.25;4953211;28;20041;-81
2023/04/15 00:38:22;;;;;;;149.10;55.35;;;6.70;99.90;;;5.20;100.00;100424.13;4931085;28;20511;-80
2023/04/15 00:40:56;;;;;;;174.75;58.13;;;6.70;99.90;;;5.23;100.00;100427.50;4919791;28;20030;-81
2023/04/15 00:43:21;;;;;;;185.25;57.55;;;6.70;99.90;;;5.25;100.00;100424.84;4915163;28;20458;-80
2023/04/15 00:45:48;;;;;;;163.88;56.70;;;6.70;99.90;;;5.24;100.00;100418.75;4935154;28;20039;-81
2023/04/15 00:48:15;;;;;;;175.75;59.95;;;6.70;99.90;;;5.24;100.00;100421.38;4944824;28;20040;-80
2023/04/15 00:50:45;;;;;;;153.43;55.72;;;6.70;99.90;;;5.22;100.00;100420.56;4932165;28;20066;-81
2023/04/15 00:53:11;;;;;;;154.25;55.22;;;6.70;99.90;;;5.23;100.00;100419.66;4931480;28;20030;-81
2023/04/15 00:55:37;;;;;;;161.15;57.30;;;6.60;99.90;;;5.23;100.00;100417.06;4966917;28;20040;-82
2023/04/15 00:58:03;;;;;;;174.90;60.00;;;6.60;99.90;;;5.24;100.00;100413.53;4941014;28;20046;-81
2023/04/15 01:00:30;;;;;;;201.00;62.38;;;6.60;99.90;;;5.24;100.00;100415.28;4918576;28;20411;-82
2023/04/15 01:02:56;;;;;;;167.02;58.65;;;6.60;99.90;;;5.21;100.00;100407.56;4946348;28;20050;-81
2023/04/15 01:05:27;;;;;;;224.55;63.05;;;6.50;99.90;;;5.19;100.00;100409.38;4958259;28;20041;-82
2023/04/15 01:07:54;;;;;;;178.85;58.60;;;6.60;99.90;;;5.13;100.00;100408.63;4971653;28;20525;-81
2023/04/15 01:10:21;;;;;;;184.68;60.85;;;6.50;99.90;;;5.12;100.00;100404.31;4931028;28;21149;-82
2023/04/15 01:12:46;;;;;;;204.18;62.72;;;6.50;99.90;;;5.08;100.00;100396.63;4959178;28;20047;-82
2023/04/15 01:15:20;;;;;;;175.30;56.40;;;6.50;99.90;;;5.03;100.00;100401.09;4925136;28;20050;-81
2023/04/15 01:17:47;;;;;;;195.43;59.03;;;6.40;99.90;;;4.99;100.00;100396.88;4958911;28;20040;-81
2023/04/15 01:20:14;;;;;;;213.70;58.45;;;6.40;99.90;;;4.92;100.00;100404.03;4940663;28;20033;-81
2023/04/15 01:22:49;;;;;;;164.00;58.90;;;6.30;99.90;;;4.81;100.00;100398.25;4949664;28;20041;-82
2023/04/15 01:25:24;;;;;;;172.45;59.22;;;6.30;99.90;;;4.83;100.00;100397.31;4931456;28;20121;-81
2023/04/15 01:27:50;;;;;;;161.10;58.25;;;6.30;99.90;;;4.90;100.00;100403.22;4938956;28;20034;-82
2023/04/15 01:30:16;;;;;;;165.05;56.95;;;6.30;99.90;;;4.90;100.00;100395.38;4926048;28;20502;-82
2023/04/15 01:32:42;;;;;;;152.32;55.40;;;6.30;99.90;;;4.86;100.00;100394.63;4901246;28;20037;-81
2023/04/15 01:35:08;;;;;;;174.15;57.65;;;6.20;99.90;;;4.85;100.00;100395.53;4920045;28;20031;-82
2023/04/15 01:37:35;;;;;;;163.23;55.67;;;6.20;99.90;;;4.83;100.00;100392.09;4974587;28;20045;-81
2023/04/15 01:40:09;;;;;;;136.55;52.60;;;6.20;99.90;;;4.86;100.00;100398.97;4960559;28;20026;-81
2023/04/15 01:42:36;;;;;;;166.32;55.42;;;6.30;99.90;;;4.85;100.00;100395.53;4964580;28;20037;-81
2023/04/15 01:45:02;;;;;;;175.10;57.33;;;6.30;99.90;;;4.87;100.00;100403.31;4934929;28;20069;-81
2023/04/15 01:47:37;;;;;;;132.60;51.88;;;6.30;99.90;;;4.90;100.00;100403.22;4921916;28;20034;-82
2023/04/15 01:50:04;;;;;;;129.45;50.25;;;6.30;99.90;;;4.92;100.00;100394.47;4924016;28;20819;-82
2023/04/15 01:52:31;;;;;;;155.52;55.67;;;6.30;99.90;;;4.94;100.00;100399.63;4951714;28;20041;-82
2023/04/15 01:55:04;;;;;;;179.52;56.95;;;6.30;99.90;;;4.96;100.00;100396.97;4950201;28;20040;-82
2023/04/15 01:57:30;;;;;;;147.38;53.58;;;6.30;99.90;;;4.95;100.00;100393.53;4944324;28;20115;-80
2023/04/15 01:59:56;;;;;;;136.50;50.30;;;6.30;99.90;;;4.91;100.00;100391.91;4919989;28;20175;-81
2023/04/15 02:02:21;;;;;;;144.50;52.15;;;6.30;99.90;;;4.92;100.00;100401.41;4921164;28;20050;-81
2023/04/15 02:04:47;;;;;;;134.00;53.92;;;6.40;99.90;;;4.95;100.00;100401.34;4932165;28;20046;-82
2023/04/15 02:07:20;;;;;;;158.68;56.25;;;6.40;99.90;;;4.97;100.00;100391.72;4922103;28;20049;-82
2023/04/15 02:09:45;;;;;;;161.43;57.22;;;6.40;99.90;;;5.02;100.00;100405.47;4937882;28;20065;-82
2023/04/15 02:12:12;;;;;;;173.90;57.58;;;6.40;99.90;;;5.04;100.00;100403.69;4984391;28;20578;-81
2023/04/15 02:14:38;;;;;;;150.98;55.05;;;6.40;99.90;;;5.06;100.00;100399.28;4964796;28;20076;-82
2023/04/15 02:17:07;;;;;;;134.90;53.63;;;6.40;99.90;;;5.07;100.00;100400.13;4946896;28;20100;-82
2023/04/15 02:19:35;;;;;;;141.48;53.97;;;6.40;99.90;;;5.08;100.00;100402.69;4940924;28;20076;-82
2023/04/15 02:22:02;;;;;;;144.27;54.28;;;6.50;99.90;;;5.11;100.00;100397.38;4966702;28;20558;-81
2023/04/15 02:24:29;;;;;;;124.68;50.67;;;6.50;99.90;;;5.18;100.00;100400.66;4943828;28;20034;-82
2023/04/15 02:26:56;;;;;;;129.60;51.78;;;6.50;99.90;;;5.18;100.00;100398.03;4942485;28;20073;-81
2023/04/15 02:29:26;;;;;;;132.10;52.00;;;6.50;99.90;;;5.21;100.00;100407.56;4932572;28;20515;-82
2023/04/15 02:31:52;;;;;;;141.00;54.15;;;6.60;99.90;;;5.26;100.00;100408.28;4930359;28;20061;-80
2023/04/15 02:34:18;;;;;;;152.57;53.92;;;6.60;99.90;;;5.28;100.00;100411.69;4938203;28;20140;-82
2023/04/15 02:36:46;;;;;;;136.68;52.70;;;6.60;99.90;;;5.34;100.00;100403.69;4996561;28;20041;-82
2023/04/15 02:39:13;;;;;;;129.15;52.72;;;6.70;99.90;;;5.41;100.00;100405.19;4958079;28;20621;-81
2023/04/15 02:41:42;;;;;;;137.18;53.05;;;6.70;99.90;;;5.46;100.00;100407.66;4954283;28;20151;-82
2023/04/15 02:44:08;;;;;;;130.95;52.45;;;6.80;99.90;;;5.52;100.00;100408.34;4943048;28;20030;-82
2023/04/15 02:46:35;;;;;;;127.47;52.83;;;6.90;99.90;;;5.60;100.00;100408.09;4929924;28;20026;-81
2023/04/15 02:49:02;;;;;;;129.10;50.78;;;6.90;99.90;;;5.65;100.00;100415.78;4932072;28;20490;-82
2023/04/15 02:51:32;;;;;;;114.70;46.90;;;7.00;99.90;;;5.73;100.00;100416.41;4950399;28;20544;-82
2023/04/15 02:53:58;;;;;;;106.47;45.75;;;7.10;99.90;;;5.79;100.00;100418.84;4926128;28;20030;-82
2023/04/15 02:56:24;;;;;;;122.30;51.28;;;7.10;99.90;;;5.89;100.00;100417.63;4948236;28;21473;-82
2023/04/15 02:58:50;;;;;;;115.80;50.72;;;7.20;99.90;;;5.92;100.00;100420.16;4903611;28;20055;-82
2023/04/15 03:01:16;;;;;;;105.15;47.17;;;7.30;99.90;;;5.93;100.00;100418.38;4949280;28;20038;-82
2023/04/15 03:03:41;;;;;;;93.30;43.15;;;7.30;99.90;;;5.96;100.00;100418.31;4971997;28;20048;-82
2023/04/15 03:06:08;;;;;;;106.88;45.03;;;;;;;6.01;100.00;100418.19;4964587;28;20030;-82
2023/04/15 03:08:41;;;;;;;112.30;47.92;;;7.40;99.90;;;6.05;100.00;100423.25;4965213;28;20354;-82
2023/04/15 03:11:07;;;;;;;123.28;49.80;;;7.40;99.90;;;6.06;100.00;100424.09;4938877;28;20038;-82
2023/04/15 03:13:33;;;;;;;118.53;48.25;;;7.40;99.90;;;6.08;100.00;100423.16;4939961;28;20097;-82
2023/04/15 03:15:59;;;;;;;116.10;47.53;;;7.40;99.90;;;6.05;100.00;100428.47;4972737;28;20038;-82
2023/04/15 03:18:30;;;;;;;111.55;45.65;;;7.50;99.90;;;6.03;100.00;100422.44;4965735;28;20072;-81
2023/04/15 03:20:56;;;;;;;94.45;42.95;;;7.50;99.90;;;6.06;100.00;100424.09;4909655;28;20087;-82
2023/04/15 03:23:22;;;;;;;102.80;44.47;;;7.40;99.90;;;6.02;100.00;100423.34;4912111;28;20045;-82
2023/04/15 03:25:47;;;;;;;97.70;43.38;;;7.50;99.90;;;6.03;100.00;100427.69;4950496;28;20061;-82
2023/04/15 03:28:13;;;;;;;93.18;42.42;;;7.50;99.90;;;6.05;100.00;100428.47;4957359;28;20174;-81
2023/04/15 03:30:39;;;;;;;89.50;42.17;;;7.50;99.90;;;6.08;100.00;100430.13;4973824;28;20112;-82
2023/04/15 03:33:10;;;;;;;94.72;41.15;;;7.50;99.90;;;6.09;100.00;100424.88;4933227;28;20059;-81
2023/04/15 03:35:36;;;;;;;79.15;38.92;;;7.50;99.90;;;6.08;100.00;100427.53;4940189;28;20051;-82
2023/04/15 03:38:02;;;;;;;78.63;39.58;;;7.50;99.90;;;6.06;100.00;100424.94;4934418;28;20041;-82
2023/04/15 03:40:28;;;;;;;82.95;40.47;;;7.50;99.90;;;6.09;100.00;100424.88;4955492;28;20042;-81
2023/04/15 03:42:55;;;;;;;72.50;36.80;;;7.50;99.90;;;6.08;100.00;100417.91;4955509;28;20037;-82
2023/04/15 03:45:26;;;;;;;78.75;38.53;;;7.50;99.90;;;6.13;100.00;100426.47;4933398;28;20034;-80
2023/04/15 03:47:52;;;;;;;74.43;37.28;;;7.50;99.90;;;6.16;100.00;100430.75;4990505;28;20026;-82
2023/04/15 03:50:17;;;;;;;71.38;34.78;;;7.60;99.90;;;6.16;100.00;100433.38;4921512;28;20040;-82
2023/04/15 03:52:44;;;;;;;76.82;37.60;;;7.60;99.90;;;6.18;100.00;100428.94;4929187;28;20049;-81
2023/04/15 03:55:10;;;;;;;72.78;36.38;;;7.50;99.90;;;6.15;100.00;100435.13;4967814;28;20041;-82
2023/04/15 03:57:37;;;;;;;66.07;34.83;;;7.60;99.90;;;6.17;100.00;100432.44;4941784;28;20096;-82
2023/04/15 04:00:09;;;;;;;68.40;35.90;;;7.60;99.90;;;6.21;100.00;100433.22;4965889;28;20034;-81
2023/04/15 04:02:35;;;;;;;51.38;26.50;;;7.60;99.90;;;6.20;100.00;100439.31;4968448;28;20735;-81
2023/04/15 04:05:01;;;;;;;66.50;34.58;;;7.60;99.90;;;6.22;100.00;100438.41;4947543;28;20727;-83
2023/04/15 04:07:27;;;;;;;61.20;33.22;;;7.60;99.90;;;6.22;100.00;100442.75;4916374;28;20045;-82
2023/04/15 04:09:58;;;;;;;66.32;34.78;;;7.70;99.90;;;6.30;100.00;100448.56;4932242;28;20043;-81
2023/04/15 04:12:24;;;;;;;62.05;31.85;;;7.70;99.90;;;6.29;100.00;100446.88;4917884;28;20085;-82
2023/04/15 04:14:50;;;;;;;66.55;33.40;;;7.70;99.90;;;6.36;100.00;100458.84;4936711;28;20038;-82
2023/04/15 04:17:16;;;;;;;60.30;31.80;;;7.80;99.90;;;6.42;100.00;100458.63;4938120;28;20041;-82
2023/04/15 04:19:41;;;;;;;52.45;27.95;;;7.80;99.90;;;6.44;100.00;100464.69;4941327;28;20126;-81
2023/04/15 04:22:07;;;;;;;54.58;29.20;;;7.80;99.90;;;6.48;100.00;100461.06;4948921;28;20305;-81
2023/04/15 04:24:42;;;;;;;50.42;26.85;;;7.90;99.90;;;6.50;100.00;100461.84;4949466;28;20123;-83
2023/04/15 04:27:08;;;;;;;51.70;28.40;;;8.00;99.90;;;6.54;100.00;100468.69;4935094;28;20094;-83
2023/04/15 04:29:34;;;;;;;51.05;27.65;;;8.00;99.90;;;6.64;100.00;100468.38;4906786;28;20060;-81
2023/04/15 04:31:59;;;;;;;51.05;26.55;;;8.00;99.90;;;6.63;100.00;100472.75;4926599;28;20526;-82
2023/04/15 04:34:28;;;;;;;41.78;22.20;;;8.10;99.90;;;6.65;100.00;100468.34;4934044;28;20054;-82
2023/04/15 04:36:56;;;;;;;45.30;25.85;;;8.10;99.90;;;6.69;100.00;100472.53;4929572;28;20624;-82
2023/04/15 04:39:22;;;;;;;36.13;21.90;;;8.10;99.90;;;6.67;100.00;100479.56;4936758;28;20108;-81
2023/04/15 04:41:48;;;;;;;47.55;27.55;;;8.10;99.90;;;6.80;100.00;100485.22;4905978;28;20050;-83
2023/04/15 04:44:14;;;;;;;38.50;21.15;;;8.20;99.90;;;6.80;100.00;100484.38;4925586;28;20125;-81
2023/04/15 04:46:39;;;;;;;38.65;21.35;;;8.20;99.90;;;6.82;100.00;100486.03;4942708;28;20410;-83
2023/04/15 04:49:13;;;;;;;40.13;24.23;;;8.30;99.90;;;6.91;100.00;100480.50;4939808;28;20130;-82
2023/04/15 04:51:39;;;;;;;41.63;20.98;;;8.30;99.90;;;7.00;100.00;100484.56;4959582;28;20039;-82
2023/04/15 04:54:05;;;;;;;36.92;20.42;;;8.40;99.90;;;7.02;100.00;100481.84;4925668;28;20107;-80
2023/04/15 04:56:31;;;;;;;41.60;22.63;;;8.40;99.90;;;7.16;100.00;100493.56;4951922;28;20108;-82
2023/04/15 04:59:02;;;;;;;40.20;24.85;;;8.50;99.90;;;7.33;100.00;100489.47;4967286;28;20485;-83
2023/04/15 05:01:28;;;;;;;37.72;20.85;;;8.70;99.90;;;7.56;100.00;100496.47;4921871;28;20034;-81
2023/04/15 05:03:55;;;;;;;36.92;21.98;;;8.90;99.90;;;8.31;100.00;100495.28;4943809;28;20513;-81
2023/04/15 05:06:21;;;;;;;30.88;19.85;;;9.30;99.90;;;9.08;100.00;100495.53;4963828;28;20185;-82
2023/04/15 05:08:47;;;;;;;30.10;18.30;;;9.70;99.90;;;9.70;100.00;100498.00;4953491;28;20782;-82
2023/04/15 05:11:19;;;;;;;24.55;14.02;;;10.20;99.90;;;10.29;100.00;100499.59;4939750;28;20037;-81
2023/04/15 05:13:45;;;;;;;19.83;10.55;;;10.30;99.90;;;10.90;100.00;100508.00;4948358;28;20495;-81
2023/04/15 05:16:11;;;;;;;27.63;15.30;;;10.90;99.90;;;11.60;94.53;100516.59;4927483;28;20038;-83
2023/04/15 05:18:36;;;;;;;27.88;18.35;;;11.40;99.90;;;12.14;89.82;100516.28;4940403;28;20022;-82
2023/04/15 05:21:03;;;;;;;21.90;14.02;;;11.60;99.90;;;12.08;86.39;100510.44;4943290;28;20581;-81
2023/04/15 05:23:36;;;;;;;25.42;14.70;;;11.80;99.90;;;12.09;84.37;100516.56;4963921;28;20042;-83
2023/04/15 05:26:02;;;;;;;22.42;15.55;;;11.90;99.90;;;12.33;82.88;100519.59;4964628;28;20033;-82
2023/04/15 05:28:28;;;;;;;26.75;15.85;;;12.00;99.90;;;12.74;81.95;100521.63;4917104;28;20499;-83
2023/04/15 05:30:54;;;;;;;23.67;14.10;;;12.30;99.90;;;13.39;79.24;100518.63;4933979;28;20045;-81
2023/04/15 05:33:20;;;;;;;26.05;14.35;;;12.40;99.90;;;13.85;77.01;100525.50;4951346;28;20105;-83
2023/04/15 05:35:51;;;;;;;22.95;14.45;;;12.80;99.90;;;14.62;74.79;100541.72;4962318;28;20518;-82
2023/04/15 05:38:17;;;;;;;25.40;15.07;;;13.30;99.90;;;15.30;71.75;100533.53;4915421;28;20055;-83
2023/04/15 05:40:43;;;;;;;26.20;13.77;;;13.80;99.90;;;16.18;68.64;100545.94;4924227;28;20031;-81
2023/04/15 05:43:08;;;;;;;20.35;13.82;;;14.10;99.90;;;16.12;67.89;100546.38;4948548;28;20056;-83
2023/04/15 05:45:34;;;;;;;23.23;12.77;;;14.30;99.90;;;15.92;67.48;100539.88;4964828;28;20034;-82
2023/04/15 05:48:02;;;;;;;18.70;11.68;;;14.20;99.90;;;15.16;68.57;100542.47;4933172;28;20070;-82
2023/04/15 05:50:31;;;;;;;20.92;13.57;;;14.20;99.90;;;16.18;67.90;100554.75;4912302;28;20121;-82
2023/04/15 05:52:57;;;;;;;23.80;13.00;;;14.30;99.90;;;16.33;67.30;100562.56;4948045;28;20026;-82
2023/04/15 05:55:23;;;;;;;23.40;12.18;;;14.30;99.90;;;15.90;66.48;100563.03;4953873;28;20105;-82
2023/04/15 05:57:48;;;;;;;14.45;9.40;;;14.20;99.90;;;14.47;68.46;100549.72;4914356;28;20114;-82
2023/04/15 06:00:15;;;;;;;19.95;13.32;;;13.60;99.90;;;13.67;72.69;100549.53;4960672;28;20121;-81
2023/04/15 06:02:48;;;;;;;23.10;14.00;;;13.90;99.90;;;15.45;70.03;100558.16;4920291;28;20573;-82
2023/04/15 06:05:14;;;;;;;15.45;9.82;;;14.00;99.90;;;14.36;69.91;100565.44;4981020;28;20046;-82
2023/04/15 06:07:40;;;;;;;24.35;14.32;;;13.50;99.90;;;12.55;75.22;100548.28;4949642;28;20040;-82
2023/04/15 06:10:07;;;;;;;19.92;11.90;;;13.30;99.90;;;11.65;78.26;100548.84;4996708;28;20038;-82
2023/04/15 06:12:40;;;;;;;24.42;13.45;;;12.70;99.90;;;10.71;82.28;100537.88;4984638;28;20529;-83
2023/04/15 06:15:09;;;;;;;22.42;15.02;;;11.90;99.90;;;10.08;86.80;100543.56;4962899;28;20034;-82
2023/04/15 06:17:35;;;;;;;21.38;13.82;;;11.70;99.90;;;9.96;89.07;100555.53;4959403;28;20558;-80
2023/04/15 06:20:07;;;;;;;21.70;14.10;;;11.20;99.90;;;9.60;91.22;100540.50;4953713;28;20044;-82
2023/04/15 06:22:33;;;;;;;28.85;16.77;;;11.00;99.90;;;9.41;93.69;100544.88;4945573;28;20039;-80
2023/04/15 06:24:59;;;;;;;33.75;15.95;;;10.90;99.90;;;9.51;95.31;100547.97;4947418;28;20778;-81
2023/04/15 06:27:24;;;;;;;23.52;13.68;;;10.80;99.90;;;9.43;96.10;100543.88;4928856;28;20571;-81
2023/04/15 06:29:50;;;;;;;26.40;14.98;;;10.80;99.90;;;9.40;97.18;100543.19;4922971;28;20077;-82
2023/04/15 06:32:16;;;;;;;24.52;13.02;;;10.60;99.90;;;9.24;97.98;100543.00;4934741;28;20093;-82
2023/04/15 06:34:46;;;;;;;31.35;16.67;;;10.50;99.90;;;9.12;99.01;100547.03;4967877;28;20044;-82
2023/04/15 06:37:15;;;;;;;25.08;17.25;;;10.60;99.90;;;9.14;99.71;100550.44;4949702;28;20045;-81
2023/04/15 06:39:42;;;;;;;20.13;12.27;;;10.40;99.90;;;8.96;100.00;100546.84;4919750;28;20116;-82
2023/04/15 06:42:13;;;;;;;22.77;13.15;;;10.40;99.90;;;8.89;100.00;100553.25;4955630;28;20031;-82
2023/04/15 06:44:39;;;;;;;28.55;18.48;;;10.30;99.90;;;9.01;100.00;100547.50;4963868;28;20030;-81
2023/04/15 06:47:05;;;;;;;23.85;15.57;;;10.30;99.90;;;8.89;100.00;100549.78;4927400;28;20057;-81
2023/04/15 06:49:32;;;;;;;24.00;13.90;;;10.30;99.90;;;8.89;100.00;100553.25;4925492;28;20536;-81
2023/04/15 06:51:59;;;;;;;29.95;18.02;;;10.30;99.90;;;8.96;100.00;100553.84;5001020;28;20053;-81
2023/04/15 06:54:32;;;;;;;35.67;20.20;;;10.30;99.90;;;9.10;100.00;100558.53;4952544;28;20152;-80
2023/04/15 06:56:58;;;;;;;18.40;11.23;;;10.30;99.90;;;8.97;100.00;100552.94;4978127;28;20348;-82
2023/04/15 06:59:24;;;;;;;29.38;18.15;;;10.40;99.90;;;9.15;100.00;100549.50;4987607;28;20040;-80
2023/04/15 07:01:50;;;;;;;24.33;15.65;;;10.40;99.90;;;9.11;100.00;100555.81;4969671;28;20089;-82
2023/04/15 07:04:15;;;;;;;28.75;19.25;;;10.40;99.90;;;9.20;100.00;100555.44;4945917;28;20109;-80
2023/04/15 07:06:46;;;;;;;18.70;11.18;;;10.60;99.90;;;9.32;100.00;100558.44;4974952;28;20057;-82
2023/04/15 07:09:12;;;;;;;24.88;14.18;;;10.60;99.90;;;9.33;100.00;100560.13;4925913;28;20029;-80
2023/04/15 07:11:38;;;;;;;28.60;18.20;;;10.60;99.90;;;9.30;100.00;100563.75;4957276;28;20117;-81
2023/04/15 07:14:04;;;;;;;29.05;17.35;;;10.70;99.90;;;9.49;100.00;100571.69;4962464;28;20565;-81
2023/04/15 07:16:30;;;;;;;33.33;20.45;;;10.80;99.90;;;9.68;100.00;100569.09;4953486;28;20128;-81
2023/04/15 07:18:56;;;;;;;29.20;19.17;;;10.90;99.90;;;9.85;100.00;100576.22;4914261;28;20129;-81
2023/04/15 07:21:26;;;;;;;28.73;16.60;;;11.10;99.90;;;9.96;99.27;100571.31;4950274;28;20028;-82
2023/04/15 07:23:52;;;;;;;23.90;13.85;;;11.00;99.90;;;9.65;97.93;100577.97;4986930;28;20018;-78
2023/04/15 07:26:18;;;;;;;26.20;17.30;;;10.80;99.90;;;9.58;98.16;100570.41;4965323;28;20120;-81
2023/04/15 07:28:45;;;;;;;23.00;15.98;;;10.90;99.90;;;9.69;98.94;100578.66;4903607;28;20045;-82
2023/04/15 07:31:11;;;;;;;25.95;18.15;;;10.90;99.90;;;9.76;98.90;100582.75;4959335;28;20037;-81
2023/04/15 07:33:42;;;;;;;22.23;12.85;;;11.00;99.90;;;9.77;98.83;100587.06;4928533;28;20053;-82
2023/04/15 07:36:09;;;;;;;19.05;12.18;;;11.00;99.90;;;9.75;97.55;100588.91;4949911;28;20030;-82
2023/04/15 07:38:35;;;;;;;20.05;14.10;;;11.00;99.90;;;9.85;97.84;100584.09;4925446;28;20419;-80
2023/04/15 07:41:01;;;;;;;33.28;19.58;;;11.20;99.90;;;10.12;98.35;100583.72;4994382;28;20088;-82
2023/04/15 07:43:27;;;;;;;22.83;14.75;;;11.30;99.90;;;10.13;97.74;100588.06;4977206;28;20140;-82
2023/04/15 07:45:58;;;;;;;19.95;10.38;;;11.30;99.90;;;10.07;97.22;100584.81;4929570;28;20033;-81
2023/04/15 07:48:24;;;;;;;25.05;13.90;;;11.30;99.90;;;10.06;96.26;100593.63;4946268;28;20131;-81
2023/04/15 07:50:50;;;;;;;25.05;12.52;;;11.10;99.90;;;9.82;94.61;100590.31;4966153;28;20125;-80
2023/04/15 07:53:16;;;;;;;22.55;14.65;;;11.20;99.90;;;10.00;95.58;100588.66;4963546;28;20041;-82
2023/04/15 07:55:42;;;;;;;29.20;15.80;;;11.30;99.90;;;10.05;95.80;100593.69;4925992;28;20037;-79
2023/04/15 07:58:13;;;;;;;24.17;15.60;;;11.20;99.90;;;10.02;94.84;100601.72;4985529;28;20044;-83
2023/04/15 08:00:40;;;;;;;24.25;16.80;;;;;;;10.06;93.81;100596.25;4931728;28;20033;-81
2023/04/15 08:03:06;;;;;;;25.73;16.35;;;11.40;99.90;;;10.33;93.67;100595.06;4979638;28;20035;-82
2023/04/15 08:05:32;;;;;;;20.33;12.45;;;11.50;99.90;;;10.51;92.72;100599.44;4954959;28;20038;-82
2023/04/15 08:07:58;;;;;;;16.55;9.30;;;11.70;99.90;;;10.62;91.60;100609.44;4926520;28;20049;-82
2023/04/15 08:10:24;;;;;;;25.85;15.63;;;11.80;99.90;;;10.94;89.81;100604.38;4923645;28;20120;-82
2023/04/15 08:12:57;;;;;;;22.25;15.45;;;11.90;99.90;;;10.90;89.17;100602.81;4971639;28;20075;-83
2023/04/15 08:15:23;;;;;;;24.50;15.63;;;11.90;99.90;;;10.83;88.75;100605.75;4944144;28;20047;-82
2023/04/15 08:17:49;;;;;;;21.55;14.48;;;11.90;99.90;;;10.87;88.01;100609.09;4958744;28;20045;-80
2023/04/15 08:20:15;;;;;;;22.88;15.43;;;12.10;99.90;;;11.10;88.29;100615.88;4990875;28;20709;-81
2023/04/15 08:22:50;;;;;;;25.55;13.38;;;12.20;99.90;;;11.21;87.89;100620.56;4940784;28;20084;-82
2023/04/15 08:25:16;;;;;;;22.42;15.63;;;12.20;99.90;;;11.09;86.83;100616.78;4954585;28;20471;-81
2023/04/15 08:27:42;;;;;;;17.67;10.43;;;12.30;99.90;;;10.92;86.38;100630.78;4935912;28;20053;-81
2023/04/15 08:30:15;;;;;;;22.55;15.85;;;12.30;99.90;;;11.31;86.59;100623.59;4963803;28;20048;-82
2023/04/15 08:32:45;;;;;;;23.70;14.55;;;12.30;99.90;;;11.37;86.51;100632.03;4942593;28;20041;-81
2023/04/15 08:35:12;;;;;;;24.67;15.70;;;12.40;99.90;;;11.31;86.54;100626.22;4912927;28;20114;-82
2023/04/15 08:37:44;;;;;;;23.40;15.98;;;12.50;99.90;;;11.46;86.23;100625.44;4944627;28;20046;-81
2023/04/15 08:40:10;;;;;;;15.15;9.45;;;12.40;99.90;;;11.23;84.94;100638.03;4984134;28;20513;-82
2023/04/15 08:42:51;;;;;;;20.60;14.63;;;12.30;99.90;;;11.20;85.04;100632.03;4925773;28;21464;-83
2023/04/15 08:45:17;;;;;;;23.15;15.57;;;12.30;99.90;;;11.28;84.10;100624.59;4964996;28;20057;-84
2023/04/15 08:47:55;;;;;;;22.95;11.13;;;12.30;99.90;;;11.12;84.02;100624.50;4982804;22;22284;-81
2023/04/15 08:50:23;;;;;;;16.20;10.32;;;12.20;99.90;;;11.05;84.33;100626.59;4951302;28;20054;-82
2023/04/15 08:52:54;;;;;;;27.30;11.15;;;12.30;99.90;;;11.23;84.86;100629.25;4975159;28;20040;-82
2023/04/15 08:55:21;;;;;;;24.95;16.30;;;12.40;99.90;;;11.73;84.63;100632.81;4933688;28;20040;-83
2023/04/15 08:57:48;;;;;;;27.27;13.38;;;12.60;99.90;;;11.57;82.50;100636.28;4967564;28;20033;-82
2023/04/15 09:00:16;;;;;;;17.10;11.52;;;12.40;99.90;;;11.07;82.31;100635.28;4929416;28;20662;-84
2023/04/15 09:02:51;;;;;;;28.35;14.60;;;12.40;99.90;;;11.35;83.18;100639.16;4929666;28;20053;-83
2023/04/15 09:06:03;;;;;;;18.80;12.32;;;12.40;99.90;;;11.23;83.02;100634.50;4912829;28;20112;-83
2023/04/15 09:08:09;;;;;;;23.63;14.88;;;12.30;99.90;;;11.21;84.13;100647.78;4908003;28;20052;-84
2023/04/15 09:10:35;;;;;;;18.75;12.15;;;12.40;99.90;;;11.26;82.84;100643.13;4901871;28;20050;-82
2023/04/15 09:13:01;;;;;;;24.55;15.10;;;12.50;99.90;;;11.66;83.58;100648.13;4994817;28;20087;-83
2023/04/15 09:15:38;;;;;;;20.25;11.77;;;12.70;99.90;;;11.56;83.03;100647.75;4970283;28;20038;-83
2023/04/15 09:18:07;;;;;;;22.02;15.93;;;12.80;99.90;;;11.89;83.23;100646.94;4948971;28;20037;-82
2023/04/15 09:20:41;;;;;;;23.15;14.57;;;12.90;99.90;;;11.97;81.59;100652.69;4992677;28;20111;-84
2023/04/15 09:23:19;;;;;;;24.05;14.27;;;13.00;99.90;;;12.00;81.24;100649.00;4989253;28;20462;-83
2023/04/15 09:25:45;;;;;;;24.25;12.50;;;13.20;99.90;;;12.34;81.65;100661.22;4958507;28;20033;-83
2023/04/15 09:28:11;;;;;;;24.13;15.45;;;13.40;99.90;;;12.70;80.26;100660.13;4957563;28;21235;-83
2023/04/15 09:30:52;;;;;;;20.17;15.13;;;13.50;99.90;;;12.78;80.25;100649.13;4993689;28;20063;-82
2023/04/15 09:33:27;;;;;;;28.75;15.93;;;13.60;99.90;;;12.80;79.92;100663.94;4990896;28;20546;-83
2023/04/15 09:36:13;;;;;;;29.85;16.88;;;13.70;99.90;;;13.05;79.44;100660.75;4972005;28;20033;-83
2023/04/15 09:39:03;;;;;;;26.23;15.60;;;14.00;99.90;;;13.48;78.63;100657.41;4958921;28;20037;-83
2023/04/15 09:41:29;;;;;;;27.48;14.10;;;14.30;99.90;;;13.72;77.54;100657.72;4967860;28;20036;-83
2023/04/15 09:44:06;;;;;;;18.02;10.52;;;;;;;13.31;75.88;100661.91;4974862;28;20065;-82
2023/04/15 09:46:50;;;;;;;18.40;13.98;;;14.30;99.90;;;13.48;76.54;100654.75;4957112;28;20045;-82
2023/04/15 09:49:19;;;;;;;19.85;12.65;;;14.70;99.90;;;13.95;76.81;100664.22;4975723;28;20034;-82
2023/04/15 09:52:06;;;;;;;18.10;12.30;;;14.80;99.90;;;13.65;75.22;100661.66;4996501;28;20096;-84
2023/04/15 09:54:48;;;;;;;;;;;14.80;99.90;;;13.13;75.60;100665.56;5001944;28;20025;-82
2023/04/15 09:57:14;;;;;;;20.38;14.52;;;14.40;99.90;;;13.39;76.80;100676.44;4987441;28;21297;-83
2023/04/15 09:59:41;;;;;;;19.08;10.93;;;14.50;99.90;;;13.26;76.51;100668.34;4998895;28;20093;-83
2023/04/15 10:02:08;;;;;;;20.92;12.48;;;14.30;99.90;;;13.24;76.52;100680.81;5012214;28;20041;-83
2023/04/15 10:04:41;;;;;;;23.45;14.02;;;14.10;99.90;;;12.99;76.63;100671.66;5030160;28;20363;-82
2023/04/15 10:07:27;;;;;;;15.65;11.57;;;14.00;99.90;;;12.91;77.33;100679.19;5010587;22;20056;-83